createdAt,value
2022-12-05T00:01:01.762Z,21.50
2022-12-05T00:03:32.438Z,23.80
2022-12-05T00:06:05.046Z,24.00
2022-12-05T00:08:36.285Z,22.20
2022-12-05T00:11:12.195Z,21.70
2022-12-05T00:13:43.293Z,21.10
2022-12-05T00:16:15.141Z,20.50
2022-12-05T00:18:46.298Z,21.20
2022-12-05T00:21:17.888Z,21.10
2022-12-05T00:23:48.883Z,21.60
2022-12-05T00:26:20.124Z,22.90
2022-12-05T00:28:51.471Z,21.20
2022-12-05T00:31:23.066Z,21.40
2022-12-05T00:33:53.549Z,21.20
2022-12-05T00:36:25.147Z,24.90
2022-12-05T00:38:56.139Z,21.50
2022-12-05T00:41:27.747Z,21.70
2022-12-05T00:43:59.793Z,22.90
2022-12-05T00:46:31.689Z,21.00
2022-12-05T00:51:34.217Z,21.40
2022-12-05T00:54:06.003Z,25.80
2022-12-05T00:56:37.169Z,24.10
2022-12-05T00:59:08.568Z,24.20
2022-12-05T01:01:40.413Z,25.70
2022-12-05T01:04:11.775Z,25.70
2022-12-05T01:06:43.013Z,23.70
2022-12-05T01:09:14.562Z,22.90
2022-12-05T01:11:45.339Z,24.90
2022-12-05T01:14:16.749Z,25.90
2022-12-05T01:16:48.740Z,25.20
2022-12-05T01:19:21.286Z,23.90
2022-12-05T01:21:52.192Z,25.00
2022-12-05T01:24:23.368Z,24.90
2022-12-05T01:26:54.212Z,25.80
2022-12-05T01:29:26.166Z,24.90
2022-12-05T01:31:56.946Z,22.30
2022-12-05T01:34:27.640Z,25.70
2022-12-05T01:36:58.772Z,24.50
2022-12-05T01:39:29.312Z,21.60
2022-12-05T01:42:00.143Z,23.90
2022-12-05T01:44:48.072Z,21.50
2022-12-05T01:47:19.495Z,22.90
2022-12-05T01:49:49.951Z,20.70
2022-12-05T01:52:23.701Z,22.20
2022-12-05T01:54:57.048Z,20.70
2022-12-05T01:57:28.058Z,19.40
2022-12-05T01:59:59.632Z,22.60
2022-12-05T02:02:31.098Z,20.30
2022-12-05T02:05:03.563Z,20.70
2022-12-05T02:07:35.425Z,22.20
2022-12-05T02:10:06.881Z,20.50
2022-12-05T02:12:39.153Z,17.70
2022-12-05T02:15:16.849Z,17.80
2022-12-05T02:17:54.133Z,20.20
2022-12-05T02:20:31.460Z,19.10
2022-12-05T02:23:15.601Z,17.30
2022-12-05T02:26:03.474Z,17.80
2022-12-05T02:28:41.909Z,17.90
2022-12-05T02:31:17.616Z,17.40
2022-12-05T02:33:52.709Z,17.90
2022-12-05T02:36:27.025Z,16.50
2022-12-05T02:39:01.138Z,17.40
2022-12-05T02:41:33.829Z,17.00
2022-12-05T02:44:06.590Z,19.30
2022-12-05T02:46:39.466Z,19.00
2022-12-05T02:49:11.109Z,18.50
2022-12-05T02:51:44.517Z,16.70
2022-12-05T02:54:18.021Z,16.00
2022-12-05T02:56:49.158Z,18.20
2022-12-05T02:59:23.261Z,15.30
2022-12-05T03:01:54.178Z,16.10
2022-12-05T03:04:26.877Z,16.70
2022-12-05T03:07:00.082Z,16.80
2022-12-05T03:09:36.867Z,15.90
2022-12-05T03:12:10.880Z,14.90
2022-12-05T03:14:45.699Z,16.70
2022-12-05T03:17:19.627Z,17.40
2022-12-05T03:19:52.593Z,17.90
2022-12-05T03:22:25.860Z,20.00
2022-12-05T03:24:56.761Z,17.50
2022-12-05T03:27:30.672Z,19.40
2022-12-05T03:30:04.596Z,20.30
2022-12-05T03:32:38.737Z,19.10
2022-12-05T03:35:13.062Z,20.80
2022-12-05T03:37:48.664Z,20.70
2022-12-05T03:40:24.640Z,22.00
2022-12-05T03:42:56.421Z,20.90
2022-12-05T03:45:29.960Z,18.60
2022-12-05T03:48:02.708Z,20.10
2022-12-05T03:53:21.376Z,20.50
2022-12-05T03:55:56.815Z,19.70
2022-12-05T03:58:30.287Z,18.90
2022-12-05T04:01:02.982Z,20.60
2022-12-05T04:03:40.531Z,21.60
2022-12-05T04:06:15.210Z,23.00
2022-12-05T04:08:48.704Z,19.90
2022-12-05T04:13:50.992Z,19.70
2022-12-05T04:16:41.832Z,21.70
2022-12-05T04:19:16.256Z,20.40
2022-12-05T04:21:49.101Z,20.20
2022-12-05T04:24:38.678Z,19.40
2022-12-05T04:27:14.660Z,21.70
2022-12-05T04:29:47.204Z,24.00
2022-12-05T04:32:19.107Z,24.10
2022-12-05T04:34:54.322Z,22.10
2022-12-05T04:37:26.467Z,22.10
2022-12-05T04:40:00.109Z,21.60
2022-12-05T04:42:32.686Z,21.40
2022-12-05T04:45:06.388Z,22.80
2022-12-05T04:47:40.623Z,23.30
2022-12-05T04:50:12.563Z,22.80
2022-12-05T04:52:44.041Z,23.80
2022-12-05T04:55:16.310Z,21.00
2022-12-05T04:57:48.985Z,23.20
2022-12-05T05:00:20.577Z,22.00
2022-12-05T05:02:53.391Z,24.40
2022-12-05T05:05:24.621Z,23.90
2022-12-05T05:07:55.971Z,21.50
2022-12-05T05:10:30.921Z,24.00
2022-12-05T05:13:01.362Z,25.60
2022-12-05T05:15:32.179Z,25.30
2022-12-05T05:18:03.150Z,24.00
2022-12-05T05:20:33.890Z,23.50
2022-12-05T05:23:04.449Z,22.90
2022-12-05T05:25:36.158Z,23.80
2022-12-05T05:28:07.105Z,21.10
2022-12-05T05:30:38.014Z,25.00
2022-12-05T05:33:08.511Z,25.90
2022-12-05T05:35:39.664Z,25.30
2022-12-05T05:38:10.075Z,24.60
2022-12-05T05:40:40.827Z,24.50
2022-12-05T05:43:11.275Z,24.50
2022-12-05T05:45:42.581Z,26.90
2022-12-05T05:48:13.313Z,27.60
2022-12-05T05:50:44.268Z,24.80
2022-12-05T05:53:14.783Z,26.30
2022-12-05T05:55:45.413Z,27.50
2022-12-05T05:58:15.834Z,25.30
2022-12-05T06:00:47.442Z,25.40
2022-12-05T06:03:18.063Z,25.80
2022-12-05T06:05:56.989Z,26.50
2022-12-05T06:08:30.557Z,25.60
2022-12-05T06:11:01.058Z,26.30
2022-12-05T06:13:31.406Z,27.60
2022-12-05T06:16:02.316Z,26.60
2022-12-05T06:18:32.721Z,26.40
2022-12-05T06:21:04.315Z,24.70
2022-12-05T06:23:35.263Z,24.00
2022-12-05T06:26:06.855Z,21.50
2022-12-05T06:28:39.608Z,22.70
2022-12-05T06:31:11.364Z,21.30
2022-12-05T06:33:42.182Z,22.50
2022-12-05T06:36:13.663Z,21.10
2022-12-05T06:38:44.329Z,21.70
2022-12-05T06:41:16.432Z,21.80
2022-12-05T06:43:47.677Z,18.90
2022-12-05T06:46:18.460Z,19.50
2022-12-05T06:48:49.238Z,18.50
2022-12-05T06:51:20.528Z,17.60
2022-12-05T06:53:51.070Z,19.40
2022-12-05T06:56:21.953Z,16.40
2022-12-05T06:58:53.720Z,19.90
2022-12-05T07:01:41.635Z,17.30
2022-12-05T07:04:16.082Z,18.50
2022-12-05T07:06:51.094Z,18.20
2022-12-05T07:09:23.281Z,19.00
2022-12-05T07:11:53.995Z,18.80
2022-12-05T07:14:46.480Z,19.40
2022-12-05T07:17:15.699Z,19.30
2022-12-05T07:19:48.109Z,18.20
2022-12-05T07:22:19.461Z,17.50
2022-12-05T07:24:52.105Z,17.10
2022-12-05T07:43:15.662Z,20.40
2022-12-05T07:45:46.171Z,19.30
2022-12-05T07:48:18.786Z,20.50
2022-12-05T07:50:49.656Z,20.70
2022-12-05T07:53:20.520Z,21.20
2022-12-05T07:55:51.659Z,20.00
2022-12-05T07:58:22.152Z,20.90
2022-12-05T08:00:53.026Z,19.80
2022-12-05T08:03:23.781Z,19.70
2022-12-05T08:05:54.357Z,17.30
2022-12-05T08:08:25.292Z,19.30
2022-12-05T08:10:55.910Z,18.60
2022-12-05T08:13:26.658Z,21.00
2022-12-05T08:15:57.300Z,19.20
2022-12-05T08:18:27.916Z,18.90
2022-12-05T08:21:02.186Z,18.70
2022-12-05T08:23:32.962Z,17.20
2022-12-05T08:26:04.715Z,17.60
2022-12-05T08:28:35.410Z,17.50
2022-12-05T08:31:07.279Z,19.10
2022-12-05T08:33:38.159Z,19.40
2022-12-05T08:36:10.113Z,21.00
2022-12-05T08:56:24.983Z,25.30
2022-12-05T08:59:04.786Z,25.60
2022-12-05T09:01:39.155Z,23.70
2022-12-05T09:04:10.575Z,25.20
2022-12-05T09:06:41.522Z,23.50
2022-12-05T09:09:12.669Z,24.70
2022-12-05T09:11:46.960Z,23.00
2022-12-05T09:14:17.914Z,22.60
2022-12-05T09:16:48.957Z,24.60
2022-12-05T09:19:21.761Z,24.10
2022-12-05T09:21:52.512Z,24.70
2022-12-05T09:24:22.999Z,22.00
2022-12-05T09:26:53.522Z,21.40
2022-12-05T09:29:25.704Z,23.80
2022-12-05T09:31:56.456Z,23.60
2022-12-05T09:34:27.265Z,24.50
2022-12-05T09:37:16.399Z,23.80
2022-12-05T09:39:49.204Z,23.10
2022-12-05T09:42:29.746Z,23.90
2022-12-05T09:45:15.358Z,23.10
2022-12-05T09:47:49.158Z,23.50
2022-12-05T09:50:24.605Z,21.30
2022-12-05T09:53:15.315Z,23.80
2022-12-05T09:55:53.834Z,25.30
2022-12-05T09:58:34.754Z,22.70
2022-12-05T10:01:09.858Z,21.50
2022-12-05T10:03:43.634Z,22.10
2022-12-05T10:06:17.609Z,21.50
2022-12-05T10:08:56.719Z,21.50
2022-12-05T10:11:29.965Z,21.40
2022-12-05T10:14:04.276Z,23.10
2022-12-05T10:16:37.304Z,22.80
2022-12-05T10:19:11.861Z,20.50
2022-12-05T10:21:46.861Z,20.60
2022-12-05T10:24:19.000Z,19.60
2022-12-05T10:26:51.017Z,21.30
2022-12-05T10:29:24.927Z,23.30
2022-12-05T10:31:57.915Z,22.00
2022-12-05T10:34:32.244Z,19.60
2022-12-05T10:37:09.303Z,20.20
2022-12-05T10:39:39.779Z,21.10
2022-12-05T10:42:14.085Z,23.70
2022-12-05T10:44:44.938Z,23.70
2022-12-05T10:47:15.601Z,23.00
2022-12-05T10:49:47.537Z,20.40
2022-12-05T10:52:18.047Z,23.10
2022-12-05T10:54:50.580Z,20.90
2022-12-05T10:57:25.343Z,20.00
2022-12-05T10:59:57.372Z,22.30
2022-12-05T11:02:30.401Z,22.80
2022-12-05T11:05:01.632Z,23.70
2022-12-05T11:07:33.713Z,21.00
2022-12-05T11:10:07.052Z,21.10
2022-12-05T11:15:08.155Z,20.00
2022-12-05T11:17:39.621Z,22.20
2022-12-05T11:20:34.527Z,25.10
2022-12-05T11:23:17.428Z,25.00
2022-12-05T11:25:47.927Z,23.40
2022-12-05T11:28:32.517Z,24.40
2022-12-05T11:31:04.510Z,22.80
2022-12-05T11:33:36.134Z,22.80
2022-12-05T11:36:12.698Z,25.80
2022-12-05T11:38:43.645Z,21.90
2022-12-05T11:41:21.646Z,21.50
2022-12-05T11:43:58.521Z,23.30
2022-12-05T11:46:34.642Z,24.00
2022-12-05T11:49:12.482Z,24.20
2022-12-05T11:51:48.856Z,24.10
2022-12-05T11:55:03.412Z,22.80
2022-12-05T11:57:29.887Z,21.70
2022-12-05T12:00:16.743Z,20.90
2022-12-05T12:02:55.844Z,22.00
2022-12-05T12:05:30.795Z,22.20
2022-12-05T12:08:04.956Z,22.90
2022-12-05T12:10:39.600Z,22.10
2022-12-05T12:13:15.571Z,20.80
2022-12-05T12:15:51.856Z,21.90
2022-12-05T12:18:27.172Z,19.60
2022-12-05T12:21:05.854Z,19.50
2022-12-05T12:23:42.665Z,20.90
2022-12-05T12:26:15.181Z,19.50
2022-12-05T12:28:47.868Z,18.90
2022-12-05T12:31:29.798Z,18.60
2022-12-05T12:34:03.820Z,17.50
2022-12-05T12:36:36.819Z,19.40
2022-12-05T12:39:16.494Z,18.60
2022-12-05T12:41:52.536Z,19.20
2022-12-05T12:44:37.076Z,17.60
2022-12-05T12:47:12.525Z,18.50
2022-12-05T12:49:49.741Z,18.60
2022-12-05T12:52:23.622Z,20.40
2022-12-05T12:55:05.345Z,21.00
2022-12-05T12:57:44.364Z,18.80
2022-12-05T13:00:21.878Z,19.40
2022-12-05T13:02:55.249Z,18.80
2022-12-05T13:05:34.521Z,20.20
2022-12-05T13:08:08.962Z,18.90
2022-12-05T13:10:41.622Z,19.80
2022-12-05T13:13:14.326Z,20.90
2022-12-05T13:15:48.087Z,20.90
2022-12-05T13:18:19.580Z,19.40
2022-12-05T13:20:51.480Z,18.70
2022-12-05T13:23:23.541Z,15.90
2022-12-05T13:25:57.412Z,17.20
2022-12-05T13:28:32.145Z,19.80
2022-12-05T13:31:07.063Z,20.00
2022-12-05T13:33:42.821Z,20.00
2022-12-05T13:36:32.068Z,18.50
2022-12-05T13:39:21.603Z,18.20
2022-12-05T13:42:11.231Z,20.20
2022-12-05T13:44:43.496Z,21.20
2022-12-05T13:47:36.000Z,20.90
2022-12-05T13:50:10.737Z,19.40
2022-12-05T13:52:45.025Z,17.80
2022-12-05T13:55:21.309Z,18.70
2022-12-05T13:57:55.680Z,19.80
2022-12-05T14:00:28.297Z,23.30
2022-12-05T14:03:02.879Z,20.80
2022-12-05T14:05:41.168Z,18.80
2022-12-05T14:08:43.357Z,18.50
2022-12-05T14:11:14.030Z,17.70
2022-12-05T14:13:45.579Z,19.20
2022-12-05T14:16:49.455Z,21.80
2022-12-05T14:19:37.025Z,19.90
2022-12-05T14:22:17.177Z,22.00
2022-12-05T14:24:54.241Z,19.40
2022-12-05T14:27:32.454Z,18.00
2022-12-05T14:30:05.701Z,18.30
2022-12-05T14:35:12.855Z,19.20
2022-12-05T14:37:49.876Z,21.20
2022-12-05T14:40:22.613Z,21.10
2022-12-05T14:42:55.513Z,20.00
2022-12-05T14:45:28.480Z,19.10
2022-12-05T14:47:59.843Z,19.40
2022-12-05T14:50:38.260Z,18.80
2022-12-05T14:53:19.816Z,19.60
2022-12-05T14:55:51.581Z,18.50
2022-12-05T14:58:28.259Z,20.30
2022-12-05T15:01:00.530Z,18.90
2022-12-05T15:03:34.285Z,18.80
2022-12-05T15:06:06.607Z,18.70
2022-12-05T15:08:46.450Z,18.40
2022-12-05T15:11:28.535Z,17.90
2022-12-05T15:14:02.733Z,21.40
2022-12-05T15:19:05.286Z,17.50
2022-12-05T15:21:38.644Z,18.80
2022-12-05T15:24:14.481Z,17.80
2022-12-05T15:26:47.960Z,19.70
2022-12-05T15:29:25.520Z,20.70
2022-12-05T15:31:57.349Z,20.00
2022-12-05T15:34:30.952Z,18.30
2022-12-05T15:37:06.049Z,19.70
2022-12-05T15:39:50.437Z,20.70
2022-12-05T15:42:24.842Z,22.60
2022-12-05T15:45:29.074Z,19.10
2022-12-05T15:48:13.488Z,20.40
2022-12-05T15:50:46.929Z,20.80
2022-12-05T15:53:19.511Z,21.20
2022-12-05T15:55:52.510Z,20.90
2022-12-05T15:58:26.137Z,22.00
2022-12-05T16:00:58.928Z,21.80
2022-12-05T16:03:35.436Z,19.50
2022-12-05T16:06:07.870Z,19.90
2022-12-05T16:08:44.613Z,20.30
2022-12-05T16:11:15.842Z,21.50
2022-12-05T16:13:47.716Z,23.10
2022-12-05T16:16:20.371Z,22.80
2022-12-05T16:18:51.966Z,20.60
2022-12-05T16:21:38.883Z,21.90
2022-12-05T16:24:17.044Z,21.80
2022-12-05T16:26:57.966Z,21.20
2022-12-05T16:29:29.363Z,20.00
2022-12-05T16:32:01.753Z,19.90
2022-12-05T16:34:34.110Z,19.50
2022-12-05T16:37:06.434Z,18.80
2022-12-05T16:39:37.071Z,24.60
2022-12-05T16:42:23.403Z,30.80
2022-12-05T16:45:02.120Z,25.20
2022-12-05T16:47:54.612Z,32.30
2022-12-05T16:50:26.637Z,30.60
2022-12-05T16:53:02.968Z,34.30
2022-12-05T16:55:37.308Z,36.20
2022-12-05T16:58:10.813Z,39.50
2022-12-05T17:00:41.394Z,41.30
2022-12-05T17:03:33.400Z,37.10
2022-12-05T17:06:03.189Z,38.80
2022-12-05T17:08:34.118Z,38.90
2022-12-05T17:11:05.825Z,37.80
2022-12-05T17:13:36.617Z,39.30
2022-12-05T17:16:07.936Z,42.20
2022-12-05T17:18:38.642Z,39.90
2022-12-05T17:21:14.259Z,39.30
2022-12-05T17:23:47.875Z,44.00
2022-12-05T17:26:20.286Z,39.60
2022-12-05T17:28:51.373Z,40.10
2022-12-05T17:31:22.840Z,37.00
2022-12-05T17:33:54.922Z,39.50
2022-12-05T17:36:25.808Z,42.30
2022-12-05T17:38:56.809Z,41.70
2022-12-05T17:41:27.178Z,42.50
2022-12-05T17:43:59.040Z,42.20
2022-12-05T17:46:29.879Z,41.40
2022-12-05T17:49:01.428Z,42.60
2022-12-05T17:51:32.153Z,42.00
2022-12-05T17:54:03.100Z,45.40
2022-12-05T17:56:33.623Z,41.80
2022-12-05T17:59:40.045Z,44.90
2022-12-05T18:02:12.056Z,48.80
2022-12-05T18:04:42.990Z,42.90
2022-12-05T18:07:13.563Z,46.30
2022-12-05T18:09:44.256Z,48.10
2022-12-05T18:12:14.700Z,45.00
2022-12-05T18:14:45.406Z,44.20
2022-12-05T18:17:16.856Z,46.00
2022-12-05T18:19:47.487Z,47.20
2022-12-05T18:22:20.280Z,46.60
2022-12-05T18:24:53.999Z,47.90
2022-12-05T18:27:24.604Z,49.40
2022-12-05T18:29:55.433Z,45.30
2022-12-05T18:32:26.013Z,46.90
2022-12-05T18:35:02.349Z,49.20
2022-12-05T18:37:36.271Z,49.20
2022-12-05T18:40:08.446Z,49.90
2022-12-05T18:42:39.296Z,48.40
2022-12-05T18:45:11.769Z,51.50
2022-12-05T18:47:43.059Z,45.50
2022-12-05T18:50:13.698Z,49.00
2022-12-05T18:52:44.243Z,49.90
2022-12-05T18:55:20.825Z,50.50
2022-12-05T18:57:54.305Z,48.90
2022-12-05T19:00:25.236Z,51.30
2022-12-05T19:02:56.175Z,51.90
2022-12-05T19:05:27.262Z,50.20
2022-12-05T19:07:58.037Z,50.50
2022-12-05T19:10:28.881Z,50.70
2022-12-05T19:13:00.238Z,48.30
2022-12-05T19:15:30.961Z,48.50
2022-12-05T19:18:01.695Z,54.60
2022-12-05T19:20:32.732Z,49.70
2022-12-05T19:23:03.363Z,50.30
2022-12-05T19:25:34.750Z,48.70
2022-12-05T19:28:06.155Z,48.00
2022-12-05T19:30:36.900Z,51.40
2022-12-05T19:33:07.982Z,50.00
2022-12-05T19:35:39.085Z,50.30
2022-12-05T19:38:10.349Z,53.10
2022-12-05T19:40:41.183Z,55.00
2022-12-05T19:43:12.913Z,57.90
2022-12-05T19:45:44.205Z,53.60
2022-12-05T19:48:15.446Z,52.70
2022-12-05T19:50:46.401Z,57.20
2022-12-05T19:53:17.570Z,53.80
2022-12-05T19:55:48.989Z,53.90
2022-12-05T19:58:20.495Z,55.60
2022-12-05T20:00:52.847Z,56.50
2022-12-05T20:03:24.046Z,52.90
2022-12-05T20:06:01.286Z,53.20
2022-12-05T20:08:32.925Z,50.80
2022-12-05T20:11:09.051Z,50.50
2022-12-05T20:13:48.493Z,50.50
2022-12-05T20:16:21.703Z,51.20
2022-12-05T20:18:53.978Z,51.00
2022-12-05T20:21:25.143Z,53.60
2022-12-05T20:23:56.046Z,56.40
2022-12-05T20:26:27.457Z,53.50
2022-12-05T20:28:58.936Z,48.50
2022-12-05T20:31:30.251Z,50.90
2022-12-05T20:34:01.902Z,49.80
2022-12-05T20:36:35.121Z,53.30
2022-12-05T20:39:07.136Z,52.20
2022-12-05T20:41:37.959Z,52.60
2022-12-05T20:44:09.429Z,54.50
2022-12-05T20:46:41.012Z,52.20
2022-12-05T20:49:13.215Z,56.10
2022-12-05T20:51:44.696Z,53.40
2022-12-05T20:54:17.000Z,55.20
2022-12-05T20:56:47.801Z,52.20
2022-12-05T20:59:18.539Z,56.00
2022-12-05T21:01:49.934Z,57.70
2022-12-05T21:04:20.934Z,62.60
2022-12-05T21:06:51.556Z,64.20
2022-12-05T21:09:28.946Z,60.10
2022-12-05T21:12:01.282Z,60.00
2022-12-05T21:14:32.259Z,57.80
2022-12-05T21:17:03.088Z,58.80
2022-12-05T21:19:33.662Z,60.10
2022-12-05T21:22:04.465Z,54.50
2022-12-05T21:24:34.982Z,57.40
2022-12-05T21:27:05.820Z,57.10
2022-12-05T21:29:36.858Z,58.50
2022-12-05T21:32:07.492Z,59.30
2022-12-05T21:34:39.036Z,63.10
2022-12-05T21:37:10.082Z,59.70
2022-12-05T21:39:40.917Z,59.80
2022-12-05T21:42:11.962Z,54.80
2022-12-05T21:44:42.521Z,60.20
2022-12-05T21:47:13.012Z,64.00
2022-12-05T21:49:43.787Z,66.90
2022-12-05T21:52:14.581Z,63.20
2022-12-05T21:54:45.212Z,63.20
2022-12-05T21:57:15.743Z,60.60
2022-12-05T21:59:46.673Z,61.10
2022-12-05T22:02:17.560Z,57.20
2022-12-05T22:04:48.485Z,56.80
2022-12-05T22:07:19.252Z,60.80
2022-12-05T22:09:49.918Z,56.50
2022-12-05T22:12:20.955Z,59.30
2022-12-05T22:14:51.739Z,66.50
2022-12-05T22:17:22.421Z,66.00
2022-12-05T22:19:53.565Z,61.10
2022-12-05T22:22:24.704Z,60.80
2022-12-05T22:24:55.542Z,61.90
2022-12-05T22:27:26.376Z,61.60
2022-12-05T22:29:57.054Z,61.00
2022-12-05T22:32:27.640Z,59.00
2022-12-05T22:35:03.465Z,61.80
2022-12-05T22:37:34.682Z,60.70
2022-12-05T22:40:05.790Z,63.80
2022-12-05T22:42:36.650Z,63.10
2022-12-05T22:45:08.278Z,60.80
2022-12-05T22:47:38.898Z,64.50
2022-12-05T22:50:10.343Z,63.60
2022-12-05T22:52:40.986Z,66.40
2022-12-05T22:55:12.016Z,68.80
2022-12-05T22:57:43.067Z,70.30
2022-12-05T23:00:17.628Z,69.30
2022-12-05T23:02:48.187Z,65.50
2022-12-05T23:05:18.962Z,65.70
2022-12-05T23:07:49.548Z,68.10
2022-12-05T23:10:20.568Z,66.50
2022-12-05T23:12:51.258Z,66.00
2022-12-05T23:15:21.926Z,69.90
2022-12-05T23:17:52.364Z,65.20
2022-12-05T23:20:23.343Z,68.00
2022-12-05T23:22:54.282Z,73.30
2022-12-05T23:25:25.024Z,70.30
2022-12-05T23:27:55.649Z,72.60
2022-12-05T23:30:26.377Z,69.40
2022-12-05T23:32:57.081Z,67.40
2022-12-05T23:35:27.744Z,64.00
2022-12-05T23:37:58.267Z,65.60
2022-12-05T23:40:29.119Z,67.20
2022-12-05T23:43:00.046Z,67.40
2022-12-05T23:45:30.845Z,72.20
2022-12-05T23:48:04.571Z,73.80
2022-12-05T23:50:35.356Z,68.10
2022-12-05T23:53:05.788Z,65.40
2022-12-05T23:55:36.563Z,67.70
2022-12-05T23:58:07.213Z,67.70
